sensor_id;sensor_type;location;lat;lon;timestamp;P1;durP1;ratioP1;P2;durP2;ratioP2
33104;SDS011;19476;51.448;6.674;2023-07-09T00:03:16;6.57;;;3.38;;
33104;SDS011;19476;51.448;6.674;2023-07-09T00:05:45;5.63;;;2.83;;
33104;SDS011;19476;51.448;6.674;2023-07-09T00:08:26;6.17;;;3.13;;
33104;SDS011;19476;51.448;6.674;2023-07-09T00:10:54;5.32;;;2.88;;
33104;SDS011;19476;51.448;6.674;2023-07-09T00:13:21;5.30;;;3.05;;
33104;SDS011;19476;51.448;6.674;2023-07-09T00:15:47;6.63;;;3.47;;
33104;SDS011;19476;51.448;6.674;2023-07-09T00:18:13;5.32;;;2.88;;
33104;SDS011;19476;51.448;6.674;2023-07-09T00:20:39;5.65;;;2.97;;
33104;SDS011;19476;51.448;6.674;2023-07-09T00:23:08;7.97;;;3.17;;
33104;SDS011;19476;51.448;6.674;2023-07-09T00:25:34;6.28;;;3.40;;
33104;SDS011;19476;51.448;6.674;2023-07-09T00:28:01;5.43;;;3.00;;
33104;SDS011;19476;51.448;6.674;2023-07-09T00:30:27;5.80;;;3.00;;
33104;SDS011;19476;51.448;6.674;2023-07-09T00:32:53;5.53;;;3.45;;
33104;SDS011;19476;51.448;6.674;2023-07-09T00:35:19;6.70;;;3.45;;
33104;SDS011;19476;51.448;6.674;2023-07-09T00:37:46;6.82;;;3.33;;
33104;SDS011;19476;51.448;6.674;2023-07-09T00:40:19;5.40;;;3.30;;
33104;SDS011;19476;51.448;6.674;2023-07-09T00:42:48;6.50;;;3.38;;
33104;SDS011;19476;51.448;6.674;2023-07-09T00:45:22;6.90;;;3.40;;
33104;SDS011;19476;51.448;6.674;2023-07-09T00:47:54;6.43;;;3.33;;
33104;SDS011;19476;51.448;6.674;2023-07-09T00:53:14;5.95;;;3.30;;
33104;SDS011;19476;51.448;6.674;2023-07-09T00:55:51;6.25;;;3.60;;
33104;SDS011;19476;51.448;6.674;2023-07-09T00:58:21;6.30;;;3.25;;
33104;SDS011;19476;51.448;6.674;2023-07-09T01:00:52;8.35;;;3.90;;
33104;SDS011;19476;51.448;6.674;2023-07-09T01:03:23;5.15;;;3.10;;
33104;SDS011;19476;51.448;6.674;2023-07-09T01:05:54;6.40;;;3.25;;
33104;SDS011;19476;51.448;6.674;2023-07-09T01:08:23;6.97;;;3.83;;
33104;SDS011;19476;51.448;6.674;2023-07-09T01:10:49;9.07;;;3.97;;
33104;SDS011;19476;51.448;6.674;2023-07-09T01:13:15;7.57;;;3.42;;
33104;SDS011;19476;51.448;6.674;2023-07-09T01:15:44;6.47;;;3.65;;
33104;SDS011;19476;51.448;6.674;2023-07-09T01:18:11;7.72;;;4.00;;
33104;SDS011;19476;51.448;6.674;2023-07-09T01:20:39;6.25;;;3.72;;
33104;SDS011;19476;51.448;6.674;2023-07-09T01:23:07;7.47;;;3.45;;
33104;SDS011;19476;51.448;6.674;2023-07-09T01:25:33;6.68;;;3.45;;
33104;SDS011;19476;51.448;6.674;2023-07-09T01:28:00;8.18;;;4.15;;
33104;SDS011;19476;51.448;6.674;2023-07-09T01:30:29;7.25;;;3.80;;
33104;SDS011;19476;51.448;6.674;2023-07-09T01:32:59;5.53;;;3.03;;
33104;SDS011;19476;51.448;6.674;2023-07-09T01:35:26;5.40;;;3.47;;
33104;SDS011;19476;51.448;6.674;2023-07-09T01:37:53;7.97;;;3.38;;
33104;SDS011;19476;51.448;6.674;2023-07-09T01:40:20;7.70;;;3.42;;
33104;SDS011;19476;51.448;6.674;2023-07-09T01:42:48;8.18;;;3.88;;
33104;SDS011;19476;51.448;6.674;2023-07-09T01:45:15;9.20;;;3.75;;
33104;SDS011;19476;51.448;6.674;2023-07-09T01:47:41;9.20;;;3.20;;
33104;SDS011;19476;51.448;6.674;2023-07-09T01:50:09;6.53;;;3.30;;
33104;SDS011;19476;51.448;6.674;2023-07-09T01:52:36;6.18;;;3.55;;
33104;SDS011;19476;51.448;6.674;2023-07-09T01:55:06;5.82;;;3.60;;
33104;SDS011;19476;51.448;6.674;2023-07-09T01:57:34;6.63;;;3.78;;
33104;SDS011;19476;51.448;6.674;2023-07-09T02:00:02;6.05;;;3.40;;
33104;SDS011;19476;51.448;6.674;2023-07-09T02:02:36;5.38;;;3.30;;
33104;SDS011;19476;51.448;6.674;2023-07-09T02:05:04;7.35;;;3.63;;
33104;SDS011;19476;51.448;6.674;2023-07-09T02:07:30;4.90;;;3.20;;
33104;SDS011;19476;51.448;6.674;2023-07-09T02:09:56;7.00;;;4.05;;
33104;SDS011;19476;51.448;6.674;2023-07-09T02:12:23;6.30;;;3.40;;
33104;SDS011;19476;51.448;6.674;2023-07-09T02:14:50;8.45;;;4.03;;
33104;SDS011;19476;51.448;6.674;2023-07-09T02:17:16;4.72;;;2.78;;
33104;SDS011;19476;51.448;6.674;2023-07-09T02:19:42;6.78;;;3.92;;
33104;SDS011;19476;51.448;6.674;2023-07-09T02:22:08;6.20;;;3.50;;
33104;SDS011;19476;51.448;6.674;2023-07-09T02:24:34;6.88;;;3.50;;
33104;SDS011;19476;51.448;6.674;2023-07-09T02:27:01;5.32;;;2.95;;
33104;SDS011;19476;51.448;6.674;2023-07-09T02:29:29;5.28;;;3.03;;
33104;SDS011;19476;51.448;6.674;2023-07-09T02:31:56;7.57;;;3.85;;
33104;SDS011;19476;51.448;6.674;2023-07-09T02:34:26;5.80;;;3.97;;
33104;SDS011;19476;51.448;6.674;2023-07-09T02:39:19;5.20;;;3.40;;
33104;SDS011;19476;51.448;6.674;2023-07-09T02:41:45;6.28;;;3.20;;
33104;SDS011;19476;51.448;6.674;2023-07-09T02:44:11;6.82;;;3.65;;
33104;SDS011;19476;51.448;6.674;2023-07-09T02:46:38;5.22;;;3.30;;
33104;SDS011;19476;51.448;6.674;2023-07-09T02:49:04;6.82;;;3.42;;
33104;SDS011;19476;51.448;6.674;2023-07-09T02:51:31;7.25;;;3.70;;
33104;SDS011;19476;51.448;6.674;2023-07-09T02:53:59;5.05;;;3.05;;
33104;SDS011;19476;51.448;6.674;2023-07-09T02:56:27;5.68;;;3.30;;
33104;SDS011;19476;51.448;6.674;2023-07-09T02:58:52;5.25;;;3.53;;
33104;SDS011;19476;51.448;6.674;2023-07-09T03:01:18;5.15;;;3.10;;
33104;SDS011;19476;51.448;6.674;2023-07-09T03:03:55;6.30;;;3.28;;
33104;SDS011;19476;51.448;6.674;2023-07-09T03:06:22;7.10;;;3.85;;
33104;SDS011;19476;51.448;6.674;2023-07-09T03:08:49;6.65;;;3.85;;
33104;SDS011;19476;51.448;6.674;2023-07-09T03:11:16;5.63;;;3.47;;
33104;SDS011;19476;51.448;6.674;2023-07-09T03:13:43;6.32;;;3.45;;
33104;SDS011;19476;51.448;6.674;2023-07-09T03:16:09;6.95;;;3.70;;
33104;SDS011;19476;51.448;6.674;2023-07-09T03:18:35;6.75;;;3.72;;
33104;SDS011;19476;51.448;6.674;2023-07-09T03:21:00;7.20;;;3.97;;
33104;SDS011;19476;51.448;6.674;2023-07-09T03:23:27;6.28;;;3.45;;
33104;SDS011;19476;51.448;6.674;2023-07-09T03:25:52;6.30;;;3.83;;
33104;SDS011;19476;51.448;6.674;2023-07-09T03:28:19;7.25;;;3.67;;
33104;SDS011;19476;51.448;6.674;2023-07-09T03:30:46;6.15;;;3.47;;
33104;SDS011;19476;51.448;6.674;2023-07-09T03:33:13;6.07;;;3.55;;
33104;SDS011;19476;51.448;6.674;2023-07-09T03:35:41;6.07;;;3.67;;
33104;SDS011;19476;51.448;6.674;2023-07-09T03:38:07;5.93;;;3.53;;
33104;SDS011;19476;51.448;6.674;2023-07-09T03:40:35;6.20;;;3.65;;
33104;SDS011;19476;51.448;6.674;2023-07-09T03:43:02;7.20;;;3.72;;
33104;SDS011;19476;51.448;6.674;2023-07-09T03:45:29;5.85;;;3.50;;
33104;SDS011;19476;51.448;6.674;2023-07-09T03:47:56;8.57;;;4.22;;
33104;SDS011;19476;51.448;6.674;2023-07-09T03:50:22;6.18;;;3.30;;
33104;SDS011;19476;51.448;6.674;2023-07-09T03:52:47;7.30;;;4.05;;
33104;SDS011;19476;51.448;6.674;2023-07-09T03:55:13;6.60;;;3.85;;
33104;SDS011;19476;51.448;6.674;2023-07-09T03:57:39;6.45;;;3.58;;
33104;SDS011;19476;51.448;6.674;2023-07-09T04:00:05;7.20;;;3.72;;
33104;SDS011;19476;51.448;6.674;2023-07-09T04:02:35;6.25;;;3.80;;
33104;SDS011;19476;51.448;6.674;2023-07-09T04:05:01;7.47;;;4.10;;
33104;SDS011;19476;51.448;6.674;2023-07-09T04:07:28;6.72;;;3.65;;
33104;SDS011;19476;51.448;6.674;2023-07-09T04:09:53;6.38;;;3.65;;
33104;SDS011;19476;51.448;6.674;2023-07-09T04:12:19;8.63;;;4.45;;
33104;SDS011;19476;51.448;6.674;2023-07-09T04:14:45;6.85;;;3.58;;
33104;SDS011;19476;51.448;6.674;2023-07-09T04:17:11;6.18;;;3.47;;
33104;SDS011;19476;51.448;6.674;2023-07-09T04:19:37;7.72;;;4.30;;
33104;SDS011;19476;51.448;6.674;2023-07-09T04:22:03;7.25;;;4.03;;
33104;SDS011;19476;51.448;6.674;2023-07-09T04:24:30;8.57;;;4.40;;
33104;SDS011;19476;51.448;6.674;2023-07-09T04:26:58;10.15;;;4.70;;
33104;SDS011;19476;51.448;6.674;2023-07-09T04:31:59;7.20;;;3.88;;
33104;SDS011;19476;51.448;6.674;2023-07-09T04:34:25;10.20;;;4.65;;
33104;SDS011;19476;51.448;6.674;2023-07-09T04:36:51;8.07;;;3.80;;
33104;SDS011;19476;51.448;6.674;2023-07-09T04:39:16;10.20;;;4.22;;
33104;SDS011;19476;51.448;6.674;2023-07-09T04:41:42;8.50;;;4.13;;
33104;SDS011;19476;51.448;6.674;2023-07-09T04:44:08;7.05;;;3.25;;
33104;SDS011;19476;51.448;6.674;2023-07-09T04:46:34;5.93;;;3.58;;
33104;SDS011;19476;51.448;6.674;2023-07-09T04:49:00;7.45;;;4.10;;
33104;SDS011;19476;51.448;6.674;2023-07-09T04:51:26;6.68;;;4.03;;
33104;SDS011;19476;51.448;6.674;2023-07-09T04:53:52;6.88;;;3.55;;
33104;SDS011;19476;51.448;6.674;2023-07-09T04:56:18;12.55;;;4.65;;
33104;SDS011;19476;51.448;6.674;2023-07-09T04:58:44;7.93;;;4.22;;
33104;SDS011;19476;51.448;6.674;2023-07-09T05:01:10;8.77;;;4.13;;
33104;SDS011;19476;51.448;6.674;2023-07-09T05:03:36;8.25;;;4.50;;
33104;SDS011;19476;51.448;6.674;2023-07-09T05:06:02;5.90;;;3.80;;
33104;SDS011;19476;51.448;6.674;2023-07-09T05:08:28;6.93;;;3.95;;
33104;SDS011;19476;51.448;6.674;2023-07-09T05:10:56;5.90;;;3.60;;
33104;SDS011;19476;51.448;6.674;2023-07-09T05:13:22;6.90;;;4.03;;
33104;SDS011;19476;51.448;6.674;2023-07-09T05:15:48;7.20;;;4.03;;
33104;SDS011;19476;51.448;6.674;2023-07-09T05:18:15;7.03;;;3.45;;
33104;SDS011;19476;51.448;6.674;2023-07-09T05:20:41;7.28;;;3.50;;
33104;SDS011;19476;51.448;6.674;2023-07-09T05:23:08;7.93;;;3.30;;
33104;SDS011;19476;51.448;6.674;2023-07-09T05:25:35;6.57;;;3.05;;
33104;SDS011;19476;51.448;6.674;2023-07-09T05:28:01;6.57;;;3.13;;
33104;SDS011;19476;51.448;6.674;2023-07-09T05:30:27;5.88;;;3.60;;
33104;SDS011;19476;51.448;6.674;2023-07-09T05:32:53;7.85;;;3.78;;
33104;SDS011;19476;51.448;6.674;2023-07-09T05:35:24;6.60;;;3.13;;
33104;SDS011;19476;51.448;6.674;2023-07-09T05:37:54;6.82;;;3.30;;
33104;SDS011;19476;51.448;6.674;2023-07-09T05:40:19;6.82;;;3.42;;
33104;SDS011;19476;51.448;6.674;2023-07-09T05:42:46;8.15;;;3.72;;
33104;SDS011;19476;51.448;6.674;2023-07-09T05:45:14;5.50;;;2.85;;
33104;SDS011;19476;51.448;6.674;2023-07-09T05:47:40;5.45;;;3.35;;
33104;SDS011;19476;51.448;6.674;2023-07-09T05:50:06;8.32;;;3.95;;
33104;SDS011;19476;51.448;6.674;2023-07-09T05:52:33;6.97;;;3.90;;
33104;SDS011;19476;51.448;6.674;2023-07-09T05:54:59;6.40;;;3.45;;
33104;SDS011;19476;51.448;6.674;2023-07-09T05:57:25;5.78;;;3.50;;
33104;SDS011;19476;51.448;6.674;2023-07-09T05:59:51;7.75;;;3.50;;
33104;SDS011;19476;51.448;6.674;2023-07-09T06:02:17;5.07;;;3.58;;
33104;SDS011;19476;51.448;6.674;2023-07-09T06:04:45;5.97;;;3.08;;
33104;SDS011;19476;51.448;6.674;2023-07-09T06:07:11;6.97;;;3.70;;
33104;SDS011;19476;51.448;6.674;2023-07-09T06:09:38;8.27;;;3.63;;
33104;SDS011;19476;51.448;6.674;2023-07-09T06:12:04;6.25;;;3.53;;
33104;SDS011;19476;51.448;6.674;2023-07-09T06:14:31;8.27;;;3.70;;
33104;SDS011;19476;51.448;6.674;2023-07-09T06:16:57;7.63;;;3.47;;
33104;SDS011;19476;51.448;6.674;2023-07-09T06:19:24;5.53;;;3.50;;
33104;SDS011;19476;51.448;6.674;2023-07-09T06:21:50;6.00;;;3.20;;
33104;SDS011;19476;51.448;6.674;2023-07-09T06:24:16;6.18;;;3.28;;
33104;SDS011;19476;51.448;6.674;2023-07-09T06:26:42;7.72;;;4.10;;
33104;SDS011;19476;51.448;6.674;2023-07-09T06:29:08;6.28;;;3.58;;
33104;SDS011;19476;51.448;6.674;2023-07-09T06:31:33;9.00;;;3.65;;
33104;SDS011;19476;51.448;6.674;2023-07-09T06:33:59;6.15;;;3.55;;
33104;SDS011;19476;51.448;6.674;2023-07-09T06:36:25;8.32;;;3.67;;
33104;SDS011;19476;51.448;6.674;2023-07-09T06:38:50;6.40;;;3.65;;
33104;SDS011;19476;51.448;6.674;2023-07-09T06:41:16;7.95;;;3.90;;
33104;SDS011;19476;51.448;6.674;2023-07-09T06:43:42;6.80;;;3.60;;
33104;SDS011;19476;51.448;6.674;2023-07-09T06:46:11;6.90;;;3.22;;
33104;SDS011;19476;51.448;6.674;2023-07-09T06:51:03;6.32;;;3.40;;
33104;SDS011;19476;51.448;6.674;2023-07-09T06:53:29;6.25;;;3.50;;
33104;SDS011;19476;51.448;6.674;2023-07-09T06:55:55;6.25;;;3.80;;
33104;SDS011;19476;51.448;6.674;2023-07-09T06:58:24;5.82;;;3.60;;
33104;SDS011;19476;51.448;6.674;2023-07-09T07:00:51;6.18;;;3.80;;
33104;SDS011;19476;51.448;6.674;2023-07-09T07:03:17;5.78;;;3.67;;
33104;SDS011;19476;51.448;6.674;2023-07-09T07:05:50;5.38;;;3.22;;
33104;SDS011;19476;51.448;6.674;2023-07-09T07:08:20;6.28;;;3.80;;
33104;SDS011;19476;51.448;6.674;2023-07-09T07:10:54;5.43;;;3.60;;
33104;SDS011;19476;51.448;6.674;2023-07-09T07:13:36;5.78;;;3.63;;
33104;SDS011;19476;51.448;6.674;2023-07-09T07:16:04;6.72;;;4.07;;
33104;SDS011;19476;51.448;6.674;2023-07-09T07:18:31;7.15;;;3.92;;
33104;SDS011;19476;51.448;6.674;2023-07-09T07:20:57;6.60;;;3.90;;
33104;SDS011;19476;51.448;6.674;2023-07-09T07:23:23;7.57;;;4.53;;
33104;SDS011;19476;51.448;6.674;2023-07-09T07:25:49;8.38;;;4.25;;
33104;SDS011;19476;51.448;6.674;2023-07-09T07:28:16;7.55;;;4.05;;
33104;SDS011;19476;51.448;6.674;2023-07-09T07:30:42;5.95;;;3.75;;
33104;SDS011;19476;51.448;6.674;2023-07-09T07:33:09;6.75;;;3.45;;
33104;SDS011;19476;51.448;6.674;2023-07-09T07:35:35;6.72;;;3.97;;
33104;SDS011;19476;51.448;6.674;2023-07-09T07:38:01;7.68;;;3.88;;
33104;SDS011;19476;51.448;6.674;2023-07-09T07:40:27;7.68;;;4.03;;
33104;SDS011;19476;51.448;6.674;2023-07-09T07:42:53;7.65;;;3.92;;
33104;SDS011;19476;51.448;6.674;2023-07-09T07:45:20;6.32;;;4.20;;
33104;SDS011;19476;51.448;6.674;2023-07-09T07:47:46;6.70;;;3.85;;
33104;SDS011;19476;51.448;6.674;2023-07-09T07:50:12;7.35;;;4.10;;
33104;SDS011;19476;51.448;6.674;2023-07-09T07:52:38;8.30;;;4.07;;
33104;SDS011;19476;51.448;6.674;2023-07-09T07:55:05;6.13;;;4.10;;
33104;SDS011;19476;51.448;6.674;2023-07-09T07:57:32;6.53;;;3.95;;
33104;SDS011;19476;51.448;6.674;2023-07-09T07:59:58;6.03;;;3.97;;
33104;SDS011;19476;51.448;6.674;2023-07-09T08:02:24;9.80;;;4.28;;
33104;SDS011;19476;51.448;6.674;2023-07-09T08:04:50;6.15;;;4.05;;
33104;SDS011;19476;51.448;6.674;2023-07-09T08:07:16;8.25;;;4.03;;
33104;SDS011;19476;51.448;6.674;2023-07-09T08:09:44;7.22;;;4.22;;
33104;SDS011;19476;51.448;6.674;2023-07-09T08:12:11;5.82;;;4.00;;
33104;SDS011;19476;51.448;6.674;2023-07-09T08:14:39;7.47;;;4.32;;
33104;SDS011;19476;51.448;6.674;2023-07-09T08:17:06;7.32;;;3.88;;
33104;SDS011;19476;51.448;6.674;2023-07-09T08:19:32;11.18;;;4.93;;
33104;SDS011;19476;51.448;6.674;2023-07-09T08:22:09;7.38;;;4.72;;
33104;SDS011;19476;51.448;6.674;2023-07-09T08:24:34;8.05;;;4.78;;
33104;SDS011;19476;51.448;6.674;2023-07-09T08:27:00;7.75;;;4.70;;
33104;SDS011;19476;51.448;6.674;2023-07-09T08:29:26;10.35;;;5.28;;
33104;SDS011;19476;51.448;6.674;2023-07-09T08:31:52;7.22;;;4.07;;
33104;SDS011;19476;51.448;6.674;2023-07-09T08:34:18;6.05;;;4.00;;
33104;SDS011;19476;51.448;6.674;2023-07-09T08:36:44;9.05;;;4.78;;
33104;SDS011;19476;51.448;6.674;2023-07-09T08:39:10;8.38;;;4.05;;
33104;SDS011;19476;51.448;6.674;2023-07-09T08:41:40;6.60;;;4.28;;
33104;SDS011;19476;51.448;6.674;2023-07-09T08:47:13;7.80;;;3.92;;
33104;SDS011;19476;51.448;6.674;2023-07-09T08:49:54;5.72;;;3.90;;
33104;SDS011;19476;51.448;6.674;2023-07-09T08:52:26;6.75;;;3.60;;
33104;SDS011;19476;51.448;6.674;2023-07-09T08:55:08;6.78;;;3.70;;
33104;SDS011;19476;51.448;6.674;2023-07-09T08:57:37;7.68;;;4.05;;
33104;SDS011;19476;51.448;6.674;2023-07-09T09:00:21;9.70;;;4.22;;
33104;SDS011;19476;51.448;6.674;2023-07-09T09:02:49;6.32;;;4.00;;
33104;SDS011;19476;51.448;6.674;2023-07-09T09:05:21;6.03;;;4.05;;
33104;SDS011;19476;51.448;6.674;2023-07-09T09:10:38;7.15;;;4.38;;
33104;SDS011;19476;51.448;6.674;2023-07-09T09:13:12;6.70;;;4.20;;
33104;SDS011;19476;51.448;6.674;2023-07-09T09:15:43;7.32;;;4.00;;
33104;SDS011;19476;51.448;6.674;2023-07-09T09:18:17;7.47;;;4.50;;
33104;SDS011;19476;51.448;6.674;2023-07-09T09:23:50;8.68;;;4.88;;
33104;SDS011;19476;51.448;6.674;2023-07-09T09:26:26;7.47;;;4.10;;
33104;SDS011;19476;51.448;6.674;2023-07-09T09:28:59;8.30;;;4.80;;
33104;SDS011;19476;51.448;6.674;2023-07-09T09:31:28;6.25;;;4.30;;
33104;SDS011;19476;51.448;6.674;2023-07-09T09:33:55;6.28;;;4.07;;
33104;SDS011;19476;51.448;6.674;2023-07-09T09:36:22;7.07;;;3.95;;
33104;SDS011;19476;51.448;6.674;2023-07-09T09:38:50;6.78;;;4.03;;
33104;SDS011;19476;51.448;6.674;2023-07-09T09:41:18;5.65;;;3.58;;
33104;SDS011;19476;51.448;6.674;2023-07-09T09:43:51;6.00;;;3.85;;
33104;SDS011;19476;51.448;6.674;2023-07-09T09:46:19;10.00;;;4.20;;
33104;SDS011;19476;51.448;6.674;2023-07-09T09:48:49;5.32;;;3.90;;
33104;SDS011;19476;51.448;6.674;2023-07-09T09:51:17;7.25;;;4.43;;
33104;SDS011;19476;51.448;6.674;2023-07-09T09:53:48;6.82;;;3.97;;
33104;SDS011;19476;51.448;6.674;2023-07-09T09:56:20;5.60;;;3.58;;
33104;SDS011;19476;51.448;6.674;2023-07-09T09:58:53;6.15;;;3.70;;
33104;SDS011;19476;51.448;6.674;2023-07-09T10:01:21;7.32;;;3.70;;
33104;SDS011;19476;51.448;6.674;2023-07-09T10:03:55;6.97;;;3.70;;
33104;SDS011;19476;51.448;6.674;2023-07-09T10:06:29;7.15;;;4.05;;
33104;SDS011;19476;51.448;6.674;2023-07-09T10:25:51;12.52;;;7.07;;
33104;SDS011;19476;51.448;6.674;2023-07-09T10:28:43;14.63;;;6.57;;
33104;SDS011;19476;51.448;6.674;2023-07-09T10:34:40;10.40;;;6.05;;
33104;SDS011;19476;51.448;6.674;2023-07-09T10:37:34;8.48;;;4.63;;
33104;SDS011;19476;51.448;6.674;2023-07-09T10:40:13;9.40;;;4.20;;
33104;SDS011;19476;51.448;6.674;2023-07-09T10:42:48;8.70;;;4.45;;
33104;SDS011;19476;51.448;6.674;2023-07-09T10:45:20;6.22;;;3.90;;
33104;SDS011;19476;51.448;6.674;2023-07-09T10:47:53;5.55;;;3.47;;
33104;SDS011;19476;51.448;6.674;2023-07-09T10:50:33;6.28;;;4.25;;
33104;SDS011;19476;51.448;6.674;2023-07-09T10:53:12;7.60;;;4.57;;
33104;SDS011;19476;51.448;6.674;2023-07-09T10:55:43;6.65;;;4.18;;
33104;SDS011;19476;51.448;6.674;2023-07-09T11:00:58;5.75;;;3.78;;
33104;SDS011;19476;51.448;6.674;2023-07-09T11:06:26;9.65;;;4.13;;
33104;SDS011;19476;51.448;6.674;2023-07-09T11:08:57;5.07;;;3.42;;
33104;SDS011;19476;51.448;6.674;2023-07-09T11:11:36;5.85;;;3.90;;
33104;SDS011;19476;51.448;6.674;2023-07-09T11:14:09;6.50;;;3.85;;
33104;SDS011;19476;51.448;6.674;2023-07-09T11:16:46;8.88;;;4.15;;
33104;SDS011;19476;51.448;6.674;2023-07-09T11:19:13;5.03;;;3.63;;
33104;SDS011;19476;51.448;6.674;2023-07-09T11:24:46;5.80;;;3.67;;
33104;SDS011;19476;51.448;6.674;2023-07-09T11:29:47;5.75;;;3.63;;
33104;SDS011;19476;51.448;6.674;2023-07-09T11:32:21;5.70;;;4.47;;
33104;SDS011;19476;51.448;6.674;2023-07-09T11:34:47;5.82;;;3.75;;
33104;SDS011;19476;51.448;6.674;2023-07-09T11:37:14;5.03;;;3.90;;
33104;SDS011;19476;51.448;6.674;2023-07-09T11:47:27;4.82;;;3.60;;
33104;SDS011;19476;51.448;6.674;2023-07-09T11:52:30;5.75;;;3.70;;
33104;SDS011;19476;51.448;6.674;2023-07-09T11:55:39;6.13;;;3.65;;
33104;SDS011;19476;51.448;6.674;2023-07-09T11:58:08;5.65;;;3.30;;
33104;SDS011;19476;51.448;6.674;2023-07-09T12:03:11;7.18;;;4.10;;
33104;SDS011;19476;51.448;6.674;2023-07-09T12:05:50;4.78;;;3.42;;
33104;SDS011;19476;51.448;6.674;2023-07-09T12:08:42;7.47;;;4.10;;
33104;SDS011;19476;51.448;6.674;2023-07-09T12:11:17;7.07;;;3.50;;
33104;SDS011;19476;51.448;6.674;2023-07-09T12:13:49;5.72;;;3.92;;
33104;SDS011;19476;51.448;6.674;2023-07-09T12:16:23;5.53;;;3.53;;
33104;SDS011;19476;51.448;6.674;2023-07-09T12:18:53;5.28;;;3.80;;
33104;SDS011;19476;51.448;6.674;2023-07-09T12:21:19;9.68;;;3.97;;
33104;SDS011;19476;51.448;6.674;2023-07-09T12:23:46;6.57;;;3.85;;
33104;SDS011;19476;51.448;6.674;2023-07-09T12:26:13;6.68;;;3.88;;
33104;SDS011;19476;51.448;6.674;2023-07-09T12:28:41;8.30;;;3.72;;
33104;SDS011;19476;51.448;6.674;2023-07-09T12:31:13;4.80;;;3.67;;
33104;SDS011;19476;51.448;6.674;2023-07-09T12:33:46;6.07;;;3.85;;
33104;SDS011;19476;51.448;6.674;2023-07-09T12:36:17;6.20;;;3.90;;
33104;SDS011;19476;51.448;6.674;2023-07-09T12:38:45;5.15;;;3.75;;
33104;SDS011;19476;51.448;6.674;2023-07-09T12:41:20;6.05;;;3.92;;
33104;SDS011;19476;51.448;6.674;2023-07-09T12:43:50;5.25;;;3.70;;
33104;SDS011;19476;51.448;6.674;2023-07-09T12:46:19;7.15;;;3.80;;
33104;SDS011;19476;51.448;6.674;2023-07-09T12:48:46;8.60;;;4.03;;
33104;SDS011;19476;51.448;6.674;2023-07-09T12:51:15;4.78;;;3.50;;
33104;SDS011;19476;51.448;6.674;2023-07-09T12:54:00;6.80;;;3.58;;
33104;SDS011;19476;51.448;6.674;2023-07-09T12:56:35;4.30;;;3.50;;
33104;SDS011;19476;51.448;6.674;2023-07-09T12:59:02;4.75;;;3.67;;
33104;SDS011;19476;51.448;6.674;2023-07-09T13:04:42;6.43;;;3.88;;
33104;SDS011;19476;51.448;6.674;2023-07-09T13:12:41;6.13;;;3.35;;
33104;SDS011;19476;51.448;6.674;2023-07-09T13:15:19;5.32;;;3.65;;
33104;SDS011;19476;51.448;6.674;2023-07-09T13:17:48;4.95;;;3.35;;
33104;SDS011;19476;51.448;6.674;2023-07-09T13:20:14;5.63;;;3.40;;
33104;SDS011;19476;51.448;6.674;2023-07-09T13:22:41;7.70;;;3.40;;
33104;SDS011;19476;51.448;6.674;2023-07-09T13:25:08;5.75;;;4.13;;
33104;SDS011;19476;51.448;6.674;2023-07-09T13:27:35;5.13;;;3.65;;
33104;SDS011;19476;51.448;6.674;2023-07-09T13:30:01;5.07;;;3.85;;
33104;SDS011;19476;51.448;6.674;2023-07-09T13:32:26;6.72;;;3.90;;
33104;SDS011;19476;51.448;6.674;2023-07-09T13:34:52;6.80;;;3.58;;
33104;SDS011;19476;51.448;6.674;2023-07-09T13:37:18;5.97;;;3.85;;
33104;SDS011;19476;51.448;6.674;2023-07-09T13:39:44;4.72;;;3.90;;
33104;SDS011;19476;51.448;6.674;2023-07-09T13:42:13;8.88;;;4.32;;
33104;SDS011;19476;51.448;6.674;2023-07-09T13:44:42;20.27;;;6.13;;
33104;SDS011;19476;51.448;6.674;2023-07-09T13:47:17;11.60;;;5.10;;
33104;SDS011;19476;51.448;6.674;2023-07-09T13:49:47;6.72;;;3.25;;
33104;SDS011;19476;51.448;6.674;2023-07-09T13:52:20;4.03;;;2.22;;
33104;SDS011;19476;51.448;6.674;2023-07-09T13:54:49;6.13;;;2.40;;
33104;SDS011;19476;51.448;6.674;2023-07-09T13:57:16;4.60;;;2.40;;
33104;SDS011;19476;51.448;6.674;2023-07-09T13:59:45;3.85;;;2.30;;
33104;SDS011;19476;51.448;6.674;2023-07-09T14:02:24;7.40;;;3.13;;
33104;SDS011;19476;51.448;6.674;2023-07-09T14:04:57;6.53;;;3.10;;
33104;SDS011;19476;51.448;6.674;2023-07-09T14:07:34;5.28;;;2.80;;
33104;SDS011;19476;51.448;6.674;2023-07-09T14:10:02;5.65;;;2.53;;
33104;SDS011;19476;51.448;6.674;2023-07-09T14:12:30;4.05;;;2.38;;
33104;SDS011;19476;51.448;6.674;2023-07-09T14:14:57;4.93;;;2.55;;
33104;SDS011;19476;51.448;6.674;2023-07-09T14:17:26;5.82;;;2.65;;
33104;SDS011;19476;51.448;6.674;2023-07-09T14:19:53;5.72;;;2.60;;
33104;SDS011;19476;51.448;6.674;2023-07-09T14:22:28;6.50;;;3.22;;
33104;SDS011;19476;51.448;6.674;2023-07-09T14:24:58;6.88;;;2.90;;
33104;SDS011;19476;51.448;6.674;2023-07-09T14:27:25;3.50;;;2.35;;
33104;SDS011;19476;51.448;6.674;2023-07-09T14:29:51;5.57;;;3.08;;
33104;SDS011;19476;51.448;6.674;2023-07-09T14:32:36;4.43;;;3.03;;
33104;SDS011;19476;51.448;6.674;2023-07-09T14:35:10;6.93;;;3.70;;
33104;SDS011;19476;51.448;6.674;2023-07-09T14:37:38;4.85;;;2.90;;
33104;SDS011;19476;51.448;6.674;2023-07-09T14:40:04;7.32;;;3.60;;
33104;SDS011;19476;51.448;6.674;2023-07-09T14:42:30;6.57;;;3.55;;
33104;SDS011;19476;51.448;6.674;2023-07-09T14:44:56;8.05;;;3.83;;
33104;SDS011;19476;51.448;6.674;2023-07-09T14:47:22;11.57;;;3.60;;
33104;SDS011;19476;51.448;6.674;2023-07-09T14:49:48;6.43;;;3.65;;
33104;SDS011;19476;51.448;6.674;2023-07-09T14:52:19;6.22;;;3.42;;
33104;SDS011;19476;51.448;6.674;2023-07-09T14:54:48;5.47;;;3.60;;
33104;SDS011;19476;51.448;6.674;2023-07-09T14:59:48;6.13;;;2.92;;
33104;SDS011;19476;51.448;6.674;2023-07-09T15:02:48;7.45;;;3.42;;
33104;SDS011;19476;51.448;6.674;2023-07-09T15:05:21;6.15;;;3.45;;
33104;SDS011;19476;51.448;6.674;2023-07-09T15:07:51;8.48;;;4.55;;
33104;SDS011;19476;51.448;6.674;2023-07-09T15:10:18;8.98;;;4.30;;
33104;SDS011;19476;51.448;6.674;2023-07-09T15:12:48;7.07;;;4.90;;
33104;SDS011;19476;51.448;6.674;2023-07-09T15:15:25;6.90;;;4.75;;
33104;SDS011;19476;51.448;6.674;2023-07-09T15:17:53;8.45;;;5.15;;
33104;SDS011;19476;51.448;6.674;2023-07-09T15:20:25;5.90;;;4.10;;
33104;SDS011;19476;51.448;6.674;2023-07-09T15:22:54;7.07;;;4.10;;
33104;SDS011;19476;51.448;6.674;2023-07-09T15:25:27;4.73;;;2.80;;
33104;SDS011;19476;51.448;6.674;2023-07-09T15:27:54;4.70;;;2.65;;
33104;SDS011;19476;51.448;6.674;2023-07-09T15:30:25;4.47;;;2.50;;
33104;SDS011;19476;51.448;6.674;2023-07-09T15:32:55;4.63;;;2.20;;
33104;SDS011;19476;51.448;6.674;2023-07-09T15:35:24;6.88;;;2.80;;
33104;SDS011;19476;51.448;6.674;2023-07-09T15:37:53;4.03;;;2.58;;
33104;SDS011;19476;51.448;6.674;2023-07-09T15:40:20;7.57;;;3.45;;
33104;SDS011;19476;51.448;6.674;2023-07-09T15:42:49;5.50;;;3.00;;
33104;SDS011;19476;51.448;6.674;2023-07-09T15:45:18;7.22;;;3.50;;
33104;SDS011;19476;51.448;6.674;2023-07-09T15:47:45;6.47;;;3.75;;
33104;SDS011;19476;51.448;6.674;2023-07-09T15:50:21;5.50;;;4.20;;
33104;SDS011;19476;51.448;6.674;2023-07-09T15:52:50;7.30;;;4.00;;
33104;SDS011;19476;51.448;6.674;2023-07-09T15:55:20;6.90;;;4.10;;
33104;SDS011;19476;51.448;6.674;2023-07-09T15:57:48;7.60;;;5.10;;
33104;SDS011;19476;51.448;6.674;2023-07-09T16:00:26;7.93;;;5.18;;
33104;SDS011;19476;51.448;6.674;2023-07-09T16:02:53;7.70;;;4.95;;
33104;SDS011;19476;51.448;6.674;2023-07-09T16:07:50;6.60;;;4.13;;
33104;SDS011;19476;51.448;6.674;2023-07-09T16:10:17;8.35;;;4.70;;
33104;SDS011;19476;51.448;6.674;2023-07-09T16:12:43;8.30;;;4.50;;
33104;SDS011;19476;51.448;6.674;2023-07-09T16:15:12;7.70;;;4.40;;
33104;SDS011;19476;51.448;6.674;2023-07-09T16:17:40;5.93;;;4.18;;